Time;durP1;ratioP1;P1;durP2;ratioP2;P2;SDS_P1;SDS_P2;PMS_P1;PMS_P2;Temp;Humidity;BMP_temperature;BMP_pressure;BME280_temperature;BME280_humidity;BME280_pressure;Samples;Min_cycle;Max_cycle;Signal;HPM_P1;HPM_P2
2024/04/15 00:00:41;;;;;;;3.88;2.42;;;;;;;;;;5444360;26;20076;-66
2024/04/15 00:03:11;;;;;;;2.60;2.15;;;;;;;;;;5431707;26;20011;-65
2024/04/15 00:05:41;;;;;;;2.90;2.40;;;;;;;;;;5429618;26;20007;-66
2024/04/15 00:08:11;;;;;;;2.53;2.00;;;;;;;;;;5449617;26;19995;-65
2024/04/15 00:10:39;;;;;;;2.63;2.00;;;;;;;;;;5445952;26;20006;-64
2024/04/15 00:13:13;;;;;;;2.63;2.00;;;;;;;;;;5443777;26;20017;-64
2024/04/15 00:15:42;;;;;;;3.30;2.17;;;;;;;;;;5444443;26;20365;-65
2024/04/15 00:18:35;;;;;;;3.55;2.42;;;;;;;;;;5420295;26;20077;-65
2024/04/15 00:21:10;;;;;;;3.22;2.13;;;;;;;;;;5424014;26;20017;-62
2024/04/15 00:23:41;;;;;;;3.55;2.15;;;;;;;;;;5444427;26;20015;-63
2024/04/15 00:26:09;;;;;;;3.35;2.40;;;;;;;;;;5440136;26;20015;-62
2024/04/15 00:28:39;;;;;;;3.20;2.40;;;;;;;;;;5448490;26;20080;-63
2024/04/15 00:31:07;;;;;;;3.85;2.40;;;;;;;;;;5439107;26;20455;-63
2024/04/15 00:33:37;;;;;;;3.60;2.28;;;;;;;;;;5437828;26;20018;-63
2024/04/15 00:36:07;;;;;;;2.58;2.38;;;;;;;;;;5440025;26;20011;-63
2024/04/15 00:38:37;;;;;;;2.88;2.30;;;;;;;;;;5448188;26;20010;-63
2024/04/15 00:41:05;;;;;;;3.35;2.40;;;;;;;;;;5444101;26;19999;-62
2024/04/15 00:43:35;;;;;;;4.20;2.03;;;;;;;;;;5447561;26;20019;-62
2024/04/15 00:46:03;;;;;;;3.20;2.10;;;;;;;;;;5435403;26;19999;-63
2024/04/15 00:48:33;;;;;;;2.88;2.20;;;;;;;;;;5448550;26;20022;-63
2024/04/15 00:51:02;;;;;;;2.63;2.28;;;;;;;;;;5431748;26;20075;-64
2024/04/15 00:53:35;;;;;;;2.58;2.13;;;;;;;;;;5448169;26;20053;-65
2024/04/15 00:56:03;;;;;;;2.65;2.00;;;;;;;;;;5448509;26;20017;-64
2024/04/15 00:58:34;;;;;;;2.63;2.17;;;;;;;;;;5448978;26;20455;-64
2024/04/15 01:01:01;;;;;;;3.75;1.90;;;;;;;;;;5443097;26;20421;-65
2024/04/15 01:03:32;;;;;;;3.65;2.13;;;;;;;;;;5448409;26;20410;-65
2024/04/15 01:05:59;;;;;;;2.45;2.00;;;;;;;;;;5447647;26;20003;-65
2024/04/15 01:08:29;;;;;;;3.55;2.20;;;;;;;;;;5444620;26;20083;-64
2024/04/15 01:11:00;;;;;;;3.70;2.28;;;;;;;;;;5431494;26;20366;-64
2024/04/15 01:13:34;;;;;;;2.17;1.88;;;;;;;;;;5448005;26;20017;-64
2024/04/15 01:16:04;;;;;;;2.03;1.75;;;;;;;;;;5444931;26;20064;-65
2024/04/15 01:18:34;;;;;;;3.60;2.08;;;;;;;;;;5445425;26;20007;-64
2024/04/15 01:21:01;;;;;;;3.38;2.03;;;;;;;;;;5439016;26;20017;-65
2024/04/15 01:23:33;;;;;;;2.17;1.98;;;;;;;;;;5447214;26;20083;-65
2024/04/15 01:26:03;;;;;;;2.33;2.10;;;;;;;;;;5445578;26;20060;-65
2024/04/15 01:28:34;;;;;;;2.35;1.90;;;;;;;;;;5439548;26;20075;-65
2024/04/15 01:31:01;;;;;;;2.35;2.10;;;;;;;;;;5448577;26;20454;-64
2024/04/15 01:33:31;;;;;;;3.33;2.22;;;;;;;;;;5447956;26;20003;-65
2024/04/15 01:35:59;;;;;;;2.67;2.20;;;;;;;;;;5433594;26;20348;-65
2024/04/15 01:38:29;;;;;;;3.08;2.05;;;;;;;;;;5432809;26;19999;-66
2024/04/15 01:40:56;;;;;;;2.55;2.10;;;;;;;;;;5445725;26;20007;-65
2024/04/15 01:43:29;;;;;;;3.50;2.08;;;;;;;;;;5447632;26;20040;-64
2024/04/15 01:45:57;;;;;;;2.30;1.92;;;;;;;;;;5448058;26;20014;-65
2024/04/15 01:48:27;;;;;;;2.20;2.00;;;;;;;;;;5448430;26;20003;-65
2024/04/15 01:50:54;;;;;;;1.70;1.60;;;;;;;;;;5447296;26;20007;-65
2024/04/15 01:53:24;;;;;;;2.50;1.80;;;;;;;;;;5438199;26;20010;-66
2024/04/15 01:55:52;;;;;;;3.03;2.05;;;;;;;;;;5446774;26;20002;-64
2024/04/15 01:58:22;;;;;;;2.72;1.98;;;;;;;;;;5442694;26;20013;-65
2024/04/15 02:00:52;;;;;;;2.13;1.90;;;;;;;;;;5448167;26;20007;-65
2024/04/15 02:03:23;;;;;;;2.78;2.13;;;;;;;;;;5445993;26;20010;-65
2024/04/15 02:05:50;;;;;;;2.10;1.70;;;;;;;;;;5446782;26;19999;-65
2024/04/15 02:08:20;;;;;;;2.08;1.85;;;;;;;;;;5447717;26;20432;-64
2024/04/15 02:10:48;;;;;;;4.97;2.15;;;;;;;;;;5448233;26;20003;-64
2024/04/15 02:13:18;;;;;;;2.45;1.50;;;;;;;;;;5447700;26;19998;-66
2024/04/15 02:15:46;;;;;;;2.80;2.15;;;;;;;;;;5441692;26;20088;-65
2024/04/15 02:18:19;;;;;;;1.98;1.77;;;;;;;;;;5452956;26;20003;-65
2024/04/15 02:20:46;;;;;;;2.28;1.90;;;;;;;;;;5445027;26;20007;-64
2024/04/15 02:23:17;;;;;;;1.85;1.75;;;;;;;;;;5447951;26;19999;-65
2024/04/15 02:25:44;;;;;;;3.58;1.95;;;;;;;;;;5447007;26;20397;-66
2024/04/15 02:28:14;;;;;;;3.28;2.10;;;;;;;;;;5447146;26;20006;-66
2024/04/15 02:30:42;;;;;;;2.35;1.55;;;;;;;;;;5447012;26;20003;-65
2024/04/15 02:33:12;;;;;;;2.72;2.08;;;;;;;;;;5443479;26;19999;-64
2024/04/15 02:35:42;;;;;;;2.13;1.92;;;;;;;;;;5446913;26;20007;-65
2024/04/15 02:38:12;;;;;;;4.70;2.22;;;;;;;;;;5447776;26;20340;-64
2024/04/15 02:40:40;;;;;;;2.33;1.85;;;;;;;;;;5446703;26;20003;-65
2024/04/15 02:43:10;;;;;;;4.97;2.25;;;;;;;;;;5442743;26;20526;-65
2024/04/15 02:45:37;;;;;;;2.40;1.90;;;;;;;;;;5442626;26;20027;-65
2024/04/15 02:48:08;;;;;;;2.80;1.90;;;;;;;;;;5439476;26;19999;-65
2024/04/15 02:50:35;;;;;;;2.33;1.85;;;;;;;;;;5436809;26;20003;-66
2024/04/15 02:53:08;;;;;;;2.58;1.73;;;;;;;;;;5444012;26;20369;-66
2024/04/15 02:55:36;;;;;;;4.88;2.08;;;;;;;;;;5437922;26;20068;-65
2024/04/15 02:58:06;;;;;;;2.38;1.80;;;;;;;;;;5446898;26;20072;-65
2024/04/15 03:00:34;;;;;;;2.83;2.03;;;;;;;;;;5447805;26;20011;-65
2024/04/15 03:03:04;;;;;;;3.95;2.10;;;;;;;;;;5444273;26;20071;-64
2024/04/15 03:05:33;;;;;;;2.35;1.77;;;;;;;;;;5446540;26;20043;-65
2024/04/15 03:08:03;;;;;;;2.60;2.03;;;;;;;;;;5448114;26;20023;-67
2024/04/15 03:10:33;;;;;;;3.67;2.00;;;;;;;;;;5450161;26;19999;-66
2024/04/15 03:13:03;;;;;;;1.77;1.65;;;;;;;;;;5440114;26;20010;-64
2024/04/15 03:15:31;;;;;;;2.00;1.80;;;;;;;;;;5450189;26;20452;-65
2024/04/15 03:18:01;;;;;;;2.15;1.75;;;;;;;;;;5448889;26;19995;-65
2024/04/15 03:20:29;;;;;;;3.00;1.80;;;;;;;;;;5437840;26;20010;-65
2024/04/15 03:22:59;;;;;;;2.20;1.60;;;;;;;;;;5445568;26;20751;-65
2024/04/15 03:25:27;;;;;;;2.42;1.67;;;;;;;;;;5447342;26;20415;-64
2024/04/15 03:27:59;;;;;;;1.58;1.48;;;;;;;;;;5449203;26;19999;-64
2024/04/15 03:30:27;;;;;;;2.63;1.63;;;;;;;;;;5437804;26;20014;-64
2024/04/15 03:32:57;;;;;;;1.88;1.52;;;;;;;;;;5448790;26;19995;-64
2024/04/15 03:35:25;;;;;;;2.40;1.60;;;;;;;;;;5447510;26;20007;-64
2024/04/15 03:37:55;;;;;;;2.67;1.65;;;;;;;;;;5440771;26;19998;-64
2024/04/15 03:40:25;;;;;;;1.70;1.60;;;;;;;;;;5449713;26;20002;-65
2024/04/15 03:42:55;;;;;;;2.42;1.92;;;;;;;;;;5436398;26;20484;-64
2024/04/15 03:45:25;;;;;;;2.45;2.05;;;;;;;;;;5449489;26;20110;-64
2024/04/15 03:47:55;;;;;;;2.17;1.80;;;;;;;;;;5449603;26;20010;-65
2024/04/15 03:50:23;;;;;;;4.82;1.60;;;;;;;;;;5443025;26;20018;-65
2024/04/15 03:52:53;;;;;;;3.13;1.33;;;;;;;;;;5446104;26;19998;-65
2024/04/15 03:55:21;;;;;;;2.60;1.63;;;;;;;;;;5449516;26;20019;-65
2024/04/15 03:57:51;;;;;;;1.45;1.20;;;;;;;;;;5448221;26;20014;-64
2024/04/15 04:00:19;;;;;;;1.90;1.33;;;;;;;;;;5449883;26;20034;-65
2024/04/15 04:02:52;;;;;;;1.60;1.50;;;;;;;;;;5430339;26;20017;-66
2024/04/15 04:05:20;;;;;;;2.33;1.55;;;;;;;;;;5439558;26;20088;-65
2024/04/15 04:07:50;;;;;;;2.47;1.55;;;;;;;;;;5448205;26;20577;-65
2024/04/15 04:10:18;;;;;;;1.45;1.35;;;;;;;;;;5448323;26;20003;-64
2024/04/15 04:12:49;;;;;;;2.17;1.52;;;;;;;;;;5449367;26;20002;-65
2024/04/15 04:15:17;;;;;;;2.03;1.38;;;;;;;;;;5449300;26;19999;-66
2024/04/15 04:17:47;;;;;;;2.55;1.88;;;;;;;;;;5447961;26;20402;-65
2024/04/15 04:20:17;;;;;;;1.88;1.55;;;;;;;;;;5443918;26;20007;-66
2024/04/15 04:22:48;;;;;;;2.58;1.50;;;;;;;;;;5449442;26;20484;-65
2024/04/15 04:25:15;;;;;;;4.95;2.20;;;;;;;;;;5449487;26;20003;-66
2024/04/15 04:27:45;;;;;;;1.17;1.08;;;;;;;;;;5448681;26;20003;-65
2024/04/15 04:30:13;;;;;;;1.77;1.52;;;;;;;;;;5447986;26;20019;-66
2024/04/15 04:32:43;;;;;;;2.42;1.65;;;;;;;;;;5438637;26;20414;-65
2024/04/15 04:35:11;;;;;;;2.00;1.80;;;;;;;;;;5439277;26;20017;-65
2024/04/15 04:37:44;;;;;;;2.15;1.70;;;;;;;;;;5433191;26;20352;-65
2024/04/15 04:40:11;;;;;;;2.22;1.60;;;;;;;;;;5443348;26;20018;-65
2024/04/15 04:42:45;;;;;;;1.25;1.15;;;;;;;;;;5448028;26;19999;-65
2024/04/15 04:45:12;;;;;;;1.98;1.60;;;;;;;;;;5440931;26;19999;-65
2024/04/15 04:47:42;;;;;;;2.55;1.55;;;;;;;;;;5444411;26;20007;-64
2024/04/15 04:50:10;;;;;;;4.93;2.35;;;;;;;;;;5435045;26;20677;-64
2024/04/15 04:52:40;;;;;;;2.72;1.80;;;;;;;;;;5442142;26;19999;-65
2024/04/15 04:55:10;;;;;;;1.85;1.50;;;;;;;;;;5444685;26;20464;-67
2024/04/15 04:57:40;;;;;;;2.17;1.67;;;;;;;;;;5436336;26;20031;-65
2024/04/15 05:00:08;;;;;;;1.70;1.48;;;;;;;;;;5439712;26;20000;-64
2024/04/15 05:02:38;;;;;;;3.97;2.08;;;;;;;;;;5443246;26;20033;-64
2024/04/15 05:05:06;;;;;;;1.70;1.55;;;;;;;;;;5435569;26;20002;-64
2024/04/15 05:07:36;;;;;;;2.38;1.70;;;;;;;;;;5442069;26;20010;-64
2024/04/15 05:10:04;;;;;;;2.67;1.65;;;;;;;;;;5437370;26;20072;-65
2024/04/15 05:12:37;;;;;;;1.80;1.60;;;;;;;;;;5442376;26;20014;-64
2024/04/15 05:15:05;;;;;;;3.33;2.00;;;;;;;;;;5435721;26;20003;-64
2024/04/15 05:17:35;;;;;;;2.80;1.95;;;;;;;;;;5443501;26;19998;-64
2024/04/15 05:20:03;;;;;;;4.35;2.05;;;;;;;;;;5442587;26;20055;-64
2024/04/15 05:22:33;;;;;;;2.95;1.70;;;;;;;;;;5446713;26;19995;-65
2024/04/15 05:25:01;;;;;;;3.50;1.85;;;;;;;;;;5448049;26;19999;-64
2024/04/15 05:27:35;;;;;;;4.10;2.10;;;;;;;;;;5439938;26;20011;-65
2024/04/15 05:30:05;;;;;;;2.53;1.73;;;;;;;;;;5446872;26;20472;-64
2024/04/15 05:32:36;;;;;;;2.42;2.10;;;;;;;;;;5447532;26;20045;-65
2024/04/15 05:35:04;;;;;;;3.33;2.20;;;;;;;;;;5447468;26;20353;-64
2024/04/15 05:37:34;;;;;;;3.42;1.83;;;;;;;;;;5433717;26;19999;-63
2024/04/15 05:40:01;;;;;;;3.60;2.30;;;;;;;;;;5443388;26;20008;-63
2024/04/15 05:42:32;;;;;;;4.70;2.05;;;;;;;;;;5448034;26;20003;-65
2024/04/15 05:44:59;;;;;;;3.67;2.13;;;;;;;;;;5435876;26;20006;-65
2024/04/15 05:47:32;;;;;;;3.72;2.38;;;;;;;;;;5435043;26;20002;-66
2024/04/15 05:49:59;;;;;;;3.30;1.98;;;;;;;;;;5448320;26;20026;-64
2024/04/15 05:52:30;;;;;;;2.78;2.00;;;;;;;;;;5448455;26;20050;-64
2024/04/15 05:54:57;;;;;;;2.97;2.22;;;;;;;;;;5447947;26;20413;-64
2024/04/15 05:57:27;;;;;;;3.03;2.10;;;;;;;;;;5446314;26;20017;-64
2024/04/15 05:59:55;;;;;;;4.28;2.03;;;;;;;;;;5446979;26;20075;-64
2024/04/15 06:02:25;;;;;;;4.70;1.95;;;;;;;;;;5447742;26;20328;-64
2024/04/15 06:04:55;;;;;;;2.92;1.90;;;;;;;;;;5448034;26;20560;-64
2024/04/15 06:07:26;;;;;;;3.10;1.80;;;;;;;;;;5446584;26;20075;-65
2024/04/15 06:09:53;;;;;;;2.65;2.00;;;;;;;;;;5447007;26;20007;-65
2024/04/15 06:12:24;;;;;;;3.75;2.17;;;;;;;;;;5446744;26;20320;-65
2024/04/15 06:14:52;;;;;;;4.45;2.13;;;;;;;;;;5448316;26;20018;-66
2024/04/15 06:17:22;;;;;;;4.20;2.15;;;;;;;;;;5442684;26;19995;-65
2024/04/15 06:19:50;;;;;;;4.80;2.22;;;;;;;;;;5441662;26;20018;-66
2024/04/15 06:22:23;;;;;;;5.95;2.03;;;;;;;;;;5447221;26;19999;-66
2024/04/15 06:24:51;;;;;;;5.45;2.08;;;;;;;;;;5446411;26;20014;-66
2024/04/15 06:27:21;;;;;;;3.97;1.92;;;;;;;;;;5446993;26;20034;-66
2024/04/15 06:29:48;;;;;;;1.90;1.67;;;;;;;;;;5447973;26;20058;-67
2024/04/15 06:32:19;;;;;;;3.35;1.60;;;;;;;;;;5446985;26;20075;-65
2024/04/15 06:34:47;;;;;;;3.05;1.90;;;;;;;;;;5444900;26;20472;-65
2024/04/15 06:37:17;;;;;;;2.83;2.30;;;;;;;;;;5441619;26;19995;-65
2024/04/15 06:39:47;;;;;;;3.05;2.08;;;;;;;;;;5447542;26;20079;-65
2024/04/15 06:42:17;;;;;;;3.20;2.10;;;;;;;;;;5446196;26;20007;-65
2024/04/15 06:44:45;;;;;;;3.28;1.83;;;;;;;;;;5446896;26;19999;-67
2024/04/15 06:47:15;;;;;;;2.63;1.80;;;;;;;;;;5445949;26;20464;-67
2024/04/15 06:49:43;;;;;;;2.92;2.00;;;;;;;;;;5435504;26;20097;-66
2024/04/15 06:52:13;;;;;;;5.43;2.30;;;;;;;;;;5446882;26;20329;-66
2024/04/15 06:54:42;;;;;;;4.05;1.95;;;;;;;;;;5436238;26;20088;-66
2024/04/15 06:57:15;;;;;;;2.10;1.90;;;;;;;;;;5445958;26;19999;-67
2024/04/15 06:59:42;;;;;;;2.88;1.80;;;;;;;;;;5446270;26;20002;-66
2024/04/15 07:02:13;;;;;;;3.00;2.00;;;;;;;;;;5444893;26;20007;-67
2024/04/15 07:04:41;;;;;;;5.60;2.00;;;;;;;;;;5435045;26;20350;-66
2024/04/15 07:07:12;;;;;;;2.05;1.70;;;;;;;;;;5445917;26;20010;-66
2024/04/15 07:09:39;;;;;;;3.50;2.00;;;;;;;;;;5446296;26;20007;-66
2024/04/15 07:12:09;;;;;;;4.40;1.70;;;;;;;;;;5446189;26;20003;-67
2024/04/15 07:14:40;;;;;;;4.47;1.67;;;;;;;;;;5446273;26;20003;-67
2024/04/15 07:17:10;;;;;;;2.28;1.52;;;;;;;;;;5444580;26;20431;-66
2024/04/15 07:19:37;;;;;;;2.90;1.70;;;;;;;;;;5446557;26;20492;-67
2024/04/15 07:22:07;;;;;;;2.50;1.63;;;;;;;;;;5445895;26;20327;-66
2024/04/15 07:24:35;;;;;;;2.33;1.70;;;;;;;;;;5445119;26;20373;-67
2024/04/15 07:27:06;;;;;;;2.58;1.98;;;;;;;;;;5442341;26;20010;-67
2024/04/15 07:29:33;;;;;;;2.15;1.67;;;;;;;;;;5434816;26;20003;-66
2024/04/15 07:32:07;;;;;;;2.15;1.70;;;;;;;;;;5434115;26;20010;-67
2024/04/15 07:34:34;;;;;;;3.45;1.80;;;;;;;;;;5444946;26;20023;-67
2024/04/15 07:37:07;;;;;;;2.80;1.67;;;;;;;;;;5444688;26;20052;-66
2024/04/15 07:39:34;;;;;;;3.83;1.85;;;;;;;;;;5445901;26;20007;-67
2024/04/15 07:42:05;;;;;;;2.65;1.67;;;;;;;;;;5446433;26;20007;-66
2024/04/15 07:44:32;;;;;;;3.58;1.80;;;;;;;;;;5446174;26;20003;-67
2024/04/15 07:47:02;;;;;;;2.45;1.70;;;;;;;;;;5445072;26;20091;-66
2024/04/15 07:49:33;;;;;;;3.22;1.80;;;;;;;;;;5437977;26;20012;-66
2024/04/15 07:52:03;;;;;;;3.22;2.03;;;;;;;;;;5442421;26;20321;-63
2024/04/15 07:54:33;;;;;;;4.38;1.80;;;;;;;;;;5449661;26;20007;-66
2024/04/15 07:57:01;;;;;;;4.53;1.75;;;;;;;;;;5437328;26;20000;-66
2024/04/15 07:59:31;;;;;;;3.38;1.70;;;;;;;;;;5448217;26;19999;-67
2024/04/15 08:01:58;;;;;;;3.05;2.03;;;;;;;;;;5436565;26;20075;-67
2024/04/15 08:04:29;;;;;;;2.05;1.70;;;;;;;;;;5449253;26;20462;-66
2024/04/15 08:06:59;;;;;;;1.80;1.52;;;;;;;;;;5448893;26;20022;-66
2024/04/15 08:09:42;;;;;;;3.03;2.00;;;;;;;;;;5449100;26;20080;-67
2024/04/15 08:12:11;;;;;;;3.25;1.80;;;;;;;;;;5448917;26;20075;-66
2024/04/15 08:14:41;;;;;;;2.42;2.08;;;;;;;;;;5448776;26;20008;-66
2024/04/15 08:17:08;;;;;;;3.47;2.00;;;;;;;;;;5435451;26;20014;-65
2024/04/15 08:19:39;;;;;;;2.78;1.95;;;;;;;;;;5449705;26;20444;-66
2024/04/15 08:22:09;;;;;;;3.00;2.22;;;;;;;;;;5448897;26;19995;-67
2024/04/15 08:24:40;;;;;;;2.92;1.70;;;;;;;;;;5448088;26;20129;-66
2024/04/15 08:27:08;;;;;;;1.77;1.63;;;;;;;;;;5448784;26;19999;-66
2024/04/15 08:29:38;;;;;;;3.47;1.60;;;;;;;;;;5449618;26;20011;-66
2024/04/15 08:32:06;;;;;;;3.47;2.00;;;;;;;;;;5446492;26;20076;-66
2024/04/15 08:34:36;;;;;;;2.47;1.95;;;;;;;;;;5448562;26;20091;-67
2024/04/15 08:37:04;;;;;;;2.83;2.20;;;;;;;;;;5431297;26;20040;-67
2024/04/15 08:39:37;;;;;;;2.47;1.95;;;;;;;;;;5448887;26;20003;-66
2024/04/15 08:42:15;;;;;;;2.08;1.88;;;;;;;;;;5449485;26;20010;-65
2024/04/15 08:44:48;;;;;;;3.63;2.00;;;;;;;;;;5448199;26;20002;-68
2024/04/15 08:47:21;;;;;;;3.25;1.70;;;;;;;;;;5439882;26;20021;-66
2024/04/15 08:49:52;;;;;;;3.53;1.77;;;;;;;;;;5448495;26;20003;-66
2024/04/15 08:52:19;;;;;;;3.03;1.73;;;;;;;;;;5438352;26;20448;-66
2024/04/15 08:54:52;;;;;;;4.28;2.13;;;;;;;;;;5443374;26;20006;-66
2024/04/15 08:57:21;;;;;;;3.08;1.85;;;;;;;;;;5447925;26;20513;-67
2024/04/15 08:59:52;;;;;;;4.63;2.25;;;;;;;;;;5448186;26;20289;-67
2024/04/15 09:02:19;;;;;;;3.08;2.10;;;;;;;;;;5447282;26;20007;-66
2024/04/15 09:04:50;;;;;;;3.45;2.20;;;;;;;;;;5447834;26;20418;-67
2024/04/15 09:07:21;;;;;;;3.25;2.08;;;;;;;;;;5448504;26;20006;-67
2024/04/15 09:09:54;;;;;;;2.90;2.10;;;;;;;;;;5448061;26;20055;-68
2024/04/15 09:12:21;;;;;;;4.63;2.13;;;;;;;;;;5448136;26;20007;-67
2024/04/15 09:14:51;;;;;;;4.13;2.10;;;;;;;;;;5448375;26;20262;-66
2024/04/15 09:17:19;;;;;;;3.80;2.60;;;;;;;;;;5448659;26;20072;-66
2024/04/15 09:19:51;;;;;;;3.20;2.10;;;;;;;;;;5447938;26;20015;-66
2024/04/15 09:22:18;;;;;;;3.38;2.30;;;;;;;;;;5436073;26;20009;-66
2024/04/15 09:24:50;;;;;;;4.55;2.30;;;;;;;;;;5447871;26;20003;-67
2024/04/15 09:27:22;;;;;;;3.50;1.98;;;;;;;;;;5447980;26;20074;-67
2024/04/15 09:29:52;;;;;;;3.15;2.10;;;;;;;;;;5449113;26;20003;-66
2024/04/15 09:32:20;;;;;;;3.53;2.45;;;;;;;;;;5448181;26;20358;-67
2024/04/15 09:34:50;;;;;;;3.42;2.05;;;;;;;;;;5446258;26;20003;-67
2024/04/15 09:37:20;;;;;;;4.68;3.00;;;;;;;;;;5432313;26;20071;-66
2024/04/15 09:39:50;;;;;;;3.17;2.08;;;;;;;;;;5448813;26;20003;-66
2024/04/15 09:42:23;;;;;;;5.07;2.53;;;;;;;;;;5448591;26;20039;-67
2024/04/15 09:44:51;;;;;;;6.13;2.60;;;;;;;;;;5447874;26;20003;-68
2024/04/15 09:47:21;;;;;;;2.85;2.25;;;;;;;;;;5446899;26;20064;-65
2024/04/15 09:49:49;;;;;;;4.65;2.22;;;;;;;;;;5446259;26;20019;-66
2024/04/15 09:52:22;;;;;;;5.63;2.85;;;;;;;;;;5445347;26;20452;-64
2024/04/15 09:54:53;;;;;;;3.22;2.17;;;;;;;;;;5445014;26;19995;-63
2024/04/15 09:57:26;;;;;;;4.22;2.72;;;;;;;;;;5446849;26;20083;-64
2024/04/15 09:59:56;;;;;;;5.28;2.60;;;;;;;;;;5447230;26;20011;-65
2024/04/15 10:02:29;;;;;;;3.75;2.40;;;;;;;;;;5441181;26;20049;-65
2024/04/15 10:05:01;;;;;;;4.55;2.72;;;;;;;;;;5448089;26;20047;-64
2024/04/15 10:07:32;;;;;;;4.63;2.40;;;;;;;;;;5443698;26;20002;-65
2024/04/15 10:10:00;;;;;;;6.00;2.50;;;;;;;;;;5447270;26;20002;-66
2024/04/15 10:12:33;;;;;;;2.53;2.20;;;;;;;;;;5446520;26;20003;-64
2024/04/15 10:15:01;;;;;;;3.78;2.20;;;;;;;;;;5436685;26;20014;-64
2024/04/15 10:17:31;;;;;;;4.05;2.10;;;;;;;;;;5447392;26;20003;-65
2024/04/15 10:20:07;;;;;;;5.90;2.20;;;;;;;;;;5441029;26;20026;-65
2024/04/15 10:22:37;;;;;;;2.42;1.70;;;;;;;;;;5446714;26;20003;-65
2024/04/15 10:25:07;;;;;;;2.33;1.67;;;;;;;;;;5444089;26;20006;-65
2024/04/15 10:27:40;;;;;;;3.60;1.95;;;;;;;;;;5438174;26;20460;-64
2024/04/15 10:30:17;;;;;;;4.70;1.80;;;;;;;;;;5447859;26;20471;-65
2024/04/15 10:32:48;;;;;;;2.10;1.77;;;;;;;;;;5446492;26;20456;-66
2024/04/15 10:35:22;;;;;;;2.47;2.08;;;;;;;;;;5435292;26;20012;-65
2024/04/15 10:37:53;;;;;;;2.33;1.87;;;;;;;;;;5447003;26;20007;-66
2024/04/15 10:40:21;;;;;;;4.13;2.00;;;;;;;;;;5447752;26;20003;-65
2024/04/15 10:42:54;;;;;;;2.85;2.00;;;;;;;;;;5446839;26;20082;-65
2024/04/15 10:45:22;;;;;;;2.22;1.70;;;;;;;;;;5446901;26;20002;-67
2024/04/15 10:47:52;;;;;;;3.28;1.83;;;;;;;;;;5445724;26;20018;-65
2024/04/15 10:50:20;;;;;;;2.10;1.80;;;;;;;;;;5444224;26;20065;-65
2024/04/15 10:52:51;;;;;;;5.10;2.40;;;;;;;;;;5445241;26;20332;-65
2024/04/15 10:55:19;;;;;;;4.70;2.33;;;;;;;;;;5446899;26;19999;-65
2024/04/15 10:57:50;;;;;;;3.60;1.95;;;;;;;;;;5445865;26;20013;-67
2024/04/15 11:00:21;;;;;;;2.13;1.77;;;;;;;;;;5439772;26;19995;-64
2024/04/15 11:02:52;;;;;;;4.85;1.88;;;;;;;;;;5444817;26;20020;-64
2024/04/15 11:05:20;;;;;;;5.55;2.00;;;;;;;;;;5446839;26;20003;-64
2024/04/15 11:07:53;;;;;;;4.20;2.08;;;;;;;;;;5435777;26;20035;-64
2024/04/15 11:10:21;;;;;;;3.38;2.28;;;;;;;;;;5446432;26;20006;-64
2024/04/15 11:12:54;;;;;;;2.35;1.77;;;;;;;;;;5446628;26;20006;-64
2024/04/15 11:15:26;;;;;;;3.90;2.03;;;;;;;;;;5447093;26;20027;-64
2024/04/15 11:17:57;;;;;;;3.65;1.70;;;;;;;;;;5446219;26;20003;-65
2024/04/15 11:20:24;;;;;;;2.30;1.70;;;;;;;;;;5446495;26;20463;-64
2024/04/15 11:22:55;;;;;;;1.60;1.50;;;;;;;;;;5446153;26;19999;-64
2024/04/15 11:25:22;;;;;;;4.90;1.80;;;;;;;;;;5446560;26;20009;-64
2024/04/15 11:27:55;;;;;;;3.97;2.00;;;;;;;;;;5446498;26;20018;-65
2024/04/15 11:30:25;;;;;;;2.35;1.40;;;;;;;;;;5440910;26;20003;-66
2024/04/15 11:32:56;;;;;;;2.75;1.67;;;;;;;;;;5449485;26;20079;-65
2024/04/15 11:35:24;;;;;;;1.58;1.48;;;;;;;;;;5425063;26;20456;-64
2024/04/15 11:37:55;;;;;;;2.47;1.65;;;;;;;;;;5439156;26;20002;-64
2024/04/15 11:40:23;;;;;;;2.80;1.48;;;;;;;;;;5450472;26;20075;-63
2024/04/15 11:42:54;;;;;;;3.90;1.60;;;;;;;;;;5449479;26;20007;-64
2024/04/15 11:45:21;;;;;;;2.22;1.45;;;;;;;;;;5449430;26;20410;-64
2024/04/15 11:47:57;;;;;;;4.63;1.50;;;;;;;;;;5437288;26;20098;-65
2024/04/15 11:50:25;;;;;;;2.45;1.40;;;;;;;;;;5445473;26;20072;-64
2024/04/15 11:52:58;;;;;;;1.40;1.30;;;;;;;;;;5449129;26;20047;-64
2024/04/15 11:55:26;;;;;;;3.65;1.50;;;;;;;;;;5442693;26;20404;-65
2024/04/15 11:57:56;;;;;;;2.00;1.30;;;;;;;;;;5448271;26;20462;-65
2024/04/15 12:00:24;;;;;;;2.38;1.27;;;;;;;;;;5432319;26;20017;-66
2024/04/15 12:02:57;;;;;;;2.88;1.30;;;;;;;;;;5449224;26;20079;-65
2024/04/15 12:05:26;;;;;;;3.75;1.25;;;;;;;;;;5440673;26;20468;-64
2024/04/15 12:07:59;;;;;;;1.40;1.30;;;;;;;;;;5432336;26;20003;-65
2024/04/15 12:10:27;;;;;;;3.25;1.58;;;;;;;;;;5447705;26;20010;-65
2024/04/15 12:12:58;;;;;;;3.55;1.75;;;;;;;;;;5433873;26;20307;-64
2024/04/15 12:15:25;;;;;;;3.28;1.63;;;;;;;;;;5435914;26;20501;-65
2024/04/15 12:17:58;;;;;;;3.90;1.73;;;;;;;;;;5448354;26;20418;-66
2024/04/15 12:20:26;;;;;;;3.78;1.70;;;;;;;;;;5448637;26;20010;-64
2024/04/15 12:22:56;;;;;;;2.63;1.80;;;;;;;;;;5439485;26;20002;-65
2024/04/15 12:25:23;;;;;;;2.97;1.75;;;;;;;;;;5446882;26;19999;-65
2024/04/15 12:27:53;;;;;;;2.15;1.90;;;;;;;;;;5445064;26;20621;-64
2024/04/15 12:30:22;;;;;;;3.08;1.80;;;;;;;;;;5432226;26;20003;-65
2024/04/15 12:32:56;;;;;;;3.15;1.90;;;;;;;;;;5437664;26;20010;-66
2024/04/15 12:35:26;;;;;;;2.72;2.05;;;;;;;;;;5425818;26;20010;-66
2024/04/15 12:37:57;;;;;;;3.17;1.80;;;;;;;;;;5428212;26;20079;-66
2024/04/15 12:40:24;;;;;;;3.70;1.55;;;;;;;;;;5435519;26;20007;-66
2024/04/15 12:42:55;;;;;;;2.22;1.90;;;;;;;;;;5427184;26;20040;-66
2024/04/15 12:45:22;;;;;;;4.75;1.95;;;;;;;;;;5446955;26;20482;-66
2024/04/15 12:47:52;;;;;;;2.55;1.63;;;;;;;;;;5441657;26;19999;-66
2024/04/15 12:50:20;;;;;;;3.63;1.60;;;;;;;;;;5447621;26;20097;-65
2024/04/15 12:52:53;;;;;;;2.60;1.75;;;;;;;;;;5443299;26;20011;-66
2024/04/15 12:55:20;;;;;;;2.00;1.50;;;;;;;;;;5446376;26;20021;-66
2024/04/15 12:57:51;;;;;;;3.90;1.80;;;;;;;;;;5441586;26;20435;-66
2024/04/15 13:00:18;;;;;;;1.75;1.65;;;;;;;;;;5434388;26;20013;-65
2024/04/15 13:02:48;;;;;;;2.58;1.85;;;;;;;;;;5432576;26;20095;-66
2024/04/15 13:05:16;;;;;;;3.38;1.73;;;;;;;;;;5431060;26;20076;-65
2024/04/15 13:07:46;;;;;;;1.45;1.35;;;;;;;;;;5441221;26;20479;-66
2024/04/15 13:10:16;;;;;;;1.75;1.30;;;;;;;;;;5434172;26;20077;-67
2024/04/15 13:12:47;;;;;;;1.33;1.23;;;;;;;;;;5426616;26;19999;-66
2024/04/15 13:15:14;;;;;;;2.85;1.40;;;;;;;;;;5429421;26;20007;-66
2024/04/15 13:17:45;;;;;;;2.00;1.60;;;;;;;;;;5444630;26;19995;-66
2024/04/15 13:20:13;;;;;;;2.13;1.40;;;;;;;;;;5434811;26;20003;-66
2024/04/15 13:22:43;;;;;;;2.33;1.35;;;;;;;;;;5446056;26;20011;-66
2024/04/15 13:25:10;;;;;;;2.08;1.70;;;;;;;;;;5444921;26;20071;-66
2024/04/15 13:27:45;;;;;;;1.95;1.40;;;;;;;;;;5441955;26;20583;-66
2024/04/15 13:30:13;;;;;;;4.07;1.67;;;;;;;;;;5433311;26;20444;-65
2024/04/15 13:32:43;;;;;;;1.40;1.30;;;;;;;;;;5435925;26;20006;-65
2024/04/15 13:35:11;;;;;;;2.17;1.60;;;;;;;;;;5438850;26;20004;-65
2024/04/15 13:37:42;;;;;;;2.33;1.60;;;;;;;;;;5456480;26;20070;-66
2024/04/15 13:40:10;;;;;;;1.52;1.27;;;;;;;;;;5441972;26;20079;-65
2024/04/15 13:42:40;;;;;;;1.98;1.50;;;;;;;;;;5445267;26;20003;-65
2024/04/15 13:45:11;;;;;;;2.38;1.60;;;;;;;;;;5438787;26;20410;-67
2024/04/15 13:47:41;;;;;;;1.40;1.30;;;;;;;;;;5443332;26;20003;-65
2024/04/15 13:50:09;;;;;;;2.53;1.70;;;;;;;;;;5444287;26;19999;-64
2024/04/15 13:52:40;;;;;;;2.20;1.58;;;;;;;;;;5434951;26;20055;-64
2024/04/15 13:55:08;;;;;;;2.60;1.60;;;;;;;;;;5442934;26;20034;-64
2024/04/15 13:57:39;;;;;;;2.75;1.60;;;;;;;;;;5445426;26;20467;-65
2024/04/15 14:00:07;;;;;;;1.70;1.40;;;;;;;;;;5442551;26;20017;-65
2024/04/15 14:02:40;;;;;;;1.50;1.40;;;;;;;;;;5437133;26;20087;-65
2024/04/15 14:05:09;;;;;;;1.27;1.17;;;;;;;;;;5443831;26;20002;-64
2024/04/15 14:07:40;;;;;;;2.85;1.40;;;;;;;;;;5445691;26;20011;-65
2024/04/15 14:10:11;;;;;;;2.13;1.38;;;;;;;;;;5442002;26;20013;-65
2024/04/15 14:12:41;;;;;;;2.45;1.58;;;;;;;;;;5432940;26;20459;-65
2024/04/15 14:15:09;;;;;;;2.78;1.23;;;;;;;;;;5436512;26;20068;-65
2024/04/15 14:17:42;;;;;;;4.97;1.63;;;;;;;;;;5445266;26;20080;-65
2024/04/15 14:20:10;;;;;;;1.95;1.50;;;;;;;;;;5440207;26;20026;-65
2024/04/15 14:22:40;;;;;;;1.75;1.45;;;;;;;;;;5438036;26;19999;-64
2024/04/15 14:25:07;;;;;;;1.60;1.40;;;;;;;;;;5434689;26;20011;-66
2024/04/15 14:27:38;;;;;;;2.28;1.75;;;;;;;;;;5444804;26;20010;-65
2024/04/15 14:30:09;;;;;;;3.08;1.40;;;;;;;;;;5440114;26;20075;-65
2024/04/15 14:32:41;;;;;;;1.92;1.60;;;;;;;;;;5435391;26;20332;-65
2024/04/15 14:35:09;;;;;;;1.95;1.40;;;;;;;;;;5441819;26;20023;-65
2024/04/15 14:37:43;;;;;;;2.25;1.50;;;;;;;;;;5426239;26;19999;-66
2024/04/15 14:40:11;;;;;;;2.17;1.40;;;;;;;;;;5444430;26;20003;-66
2024/04/15 14:42:52;;;;;;;1.33;1.20;;;;;;;;;;5444478;26;20003;-66
2024/04/15 14:45:19;;;;;;;1.52;1.30;;;;;;;;;;5432567;26;20452;-65
2024/04/15 14:47:52;;;;;;;1.77;1.50;;;;;;;;;;5439904;26;20257;-65
2024/04/15 14:50:22;;;;;;;1.85;1.50;;;;;;;;;;5429180;26;20006;-65
2024/04/15 14:52:50;;;;;;;1.33;1.10;;;;;;;;;;5436627;26;20009;-66
2024/04/15 14:55:20;;;;;;;1.50;1.25;;;;;;;;;;5426888;26;20002;-66
2024/04/15 14:57:48;;;;;;;1.80;1.20;;;;;;;;;;5437641;26;20075;-65